Fairfield, North Carolina
Current Conditions -  °F | °C
As of 4:56 PM on Wednesday 22 Oct 2014 (Local Time) from K2DP Reporting Station
Broken Clouds Broken Clouds  
Wind Chill: 57°   Ceiling: 2100
Heat Index: 57°   Visibility: 10mi
Dew Point: 51°   Wind: 15mph
Humidity: 78%   Direction: 310°NW
Pressure: 29.86"   Gusts: 25mph
Location:  35.54°N, 76.22°W
Report Text: K2DP 222056Z AUTO 31013G22KT 10SM BKN021 14/10 A2986 RMK AO2 SLPNO T01410103 53003
Loading
Personal Weather Stations






























Interactive Weather Map
Tropical Storm Tracking
New forecast layout! Learn more

10-Day Weather Forecast

Advertisements
Track Severe Weather on mobile